Time;durP1;ratioP1;P1;durP2;ratioP2;P2;SDS_P1;SDS_P2;PMS_P1;PMS_P2;Temp;Humidity;BMP_temperature;BMP_pressure;BME280_temperature;BME280_humidity;BME280_pressure;Samples;Min_cycle;Max_cycle;Signal;HPM_P1;HPM_P2
2021/08/18 00:00:25;;;;;;;13.45;5.60;;;;;;;21.78;59.63;94736.16;5016795;28;19995;-78
2021/08/18 00:02:53;;;;;;;12.55;5.13;;;;;;;21.73;59.81;94725.69;5033052;28;20394;-78
2021/08/18 00:05:22;;;;;;;;;;;;;;;21.67;59.48;94730.34;5033611;28;20119;-78
2021/08/18 00:07:47;;;;;;;17.98;6.05;;;;;;;21.58;59.83;94727.63;5031979;28;20058;-78
2021/08/18 00:10:13;;;;;;;13.38;5.40;;;;;;;21.54;59.60;94724.03;5034041;28;20037;-78
2021/08/18 00:12:38;;;;;;;20.93;5.70;;;;;;;21.55;59.42;94724.81;5014523;28;20489;-78
2021/08/18 00:15:05;;;;;;;15.20;5.20;;;;;;;21.65;58.71;94718.50;5032280;28;20048;-78
2021/08/18 00:17:33;;;;;;;14.63;4.93;;;;;;;21.60;58.81;94708.03;5018084;28;20087;-78
2021/08/18 00:19:59;;;;;;;14.93;4.80;;;;;;;21.53;58.33;94706.59;5019115;28;20017;-78
2021/08/18 00:24:51;;;;;;;21.25;5.45;;;;;;;21.63;58.54;94694.97;5055419;28;20481;-78
2021/08/18 00:27:17;;;;;;;18.93;5.37;;;;;;;21.71;57.91;94696.13;5053377;28;20401;-78
2021/08/18 00:29:42;;;;;;;24.70;5.87;;;;;;;21.77;57.93;94700.19;5043688;23;20919;-78
2021/08/18 00:32:08;;;;;;;16.63;5.30;;;;;;;21.79;57.95;94698.00;5051879;28;20408;-80
2021/08/18 00:34:33;;;;;;;16.10;5.50;;;;;;;21.76;57.82;94688.03;5068546;28;20040;-77
2021/08/18 00:36:59;;;;;;;15.57;5.67;;;;;;;21.76;57.58;94682.75;5049220;28;20904;-78
2021/08/18 00:39:24;;;;;;;17.30;5.43;;;;;;;21.79;57.21;94682.91;5051784;28;20404;-79
2021/08/18 00:41:50;;;;;;;16.13;4.63;;;;;;;21.72;57.71;94681.78;5051119;28;20067;-77
2021/08/18 00:44:21;;;;;;;20.45;5.35;;;;;;;21.54;58.58;94673.78;5052527;28;20474;-77
2021/08/18 00:46:51;;;;;;;17.10;5.10;;;;;;;21.43;58.60;94664.53;5053834;28;20029;-77
2021/08/18 00:49:20;;;;;;;13.73;5.40;;;;;;;21.30;59.04;94664.59;5055794;28;20051;-78
2021/08/18 00:51:47;;;;;;;12.02;5.20;;;;;;;21.25;59.22;94661.00;5053724;28;20060;-77
2021/08/18 00:54:14;;;;;;;11.25;5.47;;;;;;;21.19;59.87;94656.13;5052106;28;20043;-78
2021/08/18 00:56:40;;;;;;;11.77;5.03;;;;;;;21.16;60.04;94643.50;5034866;28;20048;-78
2021/08/18 00:59:05;;;;;;;14.40;6.25;;;;;;;21.12;60.21;94653.88;5051322;28;20025;-77
2021/08/18 01:01:31;;;;;;;13.43;6.50;;;;;;;21.25;60.68;94663.66;5016836;28;20400;-78
2021/08/18 01:03:56;;;;;;;11.50;5.70;;;;;;;21.32;60.33;94650.00;5052339;28;20090;-78
2021/08/18 01:06:22;;;;;;;18.65;6.20;;;;;;;21.33;60.04;94642.84;5051067;28;20428;-77
2021/08/18 01:08:47;;;;;;;12.73;6.07;;;;;;;21.40;59.83;94649.25;5016722;28;20411;-78
2021/08/18 01:11:13;;;;;;;15.03;6.43;;;;;;;21.55;59.42;94656.03;5051046;28;20396;-77
2021/08/18 01:13:38;;;;;;;11.30;6.05;;;;;;;21.58;59.27;94653.56;5050881;28;20175;-77
2021/08/18 01:16:04;;;;;;;11.60;4.80;;;;;;;21.53;58.72;94658.19;5034234;28;20488;-78
2021/08/18 01:18:30;;;;;;;26.13;5.15;;;;;;;21.42;59.36;94660.31;5051131;28;20125;-78
2021/08/18 01:20:56;;;;;;;13.18;5.75;;;;;;;21.34;59.42;94661.06;5052126;28;20021;-78
2021/08/18 01:23:21;;;;;;;18.98;6.53;;;;;;;21.41;59.09;94665.91;5031238;28;20416;-78
2021/08/18 01:25:50;;;;;;;18.07;5.70;;;;;;;21.56;58.33;94666.31;5049022;28;20412;-77
2021/08/18 01:28:15;;;;;;;17.60;6.15;;;;;;;21.56;58.15;94676.91;5040132;22;20493;-78
2021/08/18 01:30:41;;;;;;;10.15;5.05;;;;;;;21.53;58.08;94679.38;5032164;28;20084;-78
2021/08/18 01:35:40;;;;;;;14.65;5.22;;;;;;;21.29;58.46;94692.91;5039263;22;20048;-78
2021/08/18 01:38:06;;;;;;;13.20;5.50;;;;;;;21.19;58.25;94698.44;5032250;28;20037;-78
2021/08/18 01:40:32;;;;;;;;;;;;;;;21.12;58.52;94698.06;5015184;28;21110;-78
2021/08/18 01:43:00;;;;;;;11.90;5.00;;;;;;;21.05;58.52;94706.41;5014277;28;19924;-78
2021/08/18 01:45:30;;;;;;;13.75;4.90;;;;;;;21.02;58.78;94706.25;5032744;28;20159;-78
2021/08/18 01:47:56;;;;;;;15.82;4.82;;;;;;;20.97;58.65;94705.25;5033253;28;20041;-79
2021/08/18 01:50:21;;;;;;;;;;;;;;;20.90;59.21;94698.84;5033669;28;20029;-78
2021/08/18 01:52:56;;;;;;;21.00;5.75;;;;;;;20.78;59.25;94694.06;5036467;28;19920;-79
2021/08/18 01:55:24;;;;;;;15.05;4.70;;;;;;;20.72;59.14;94692.63;5036385;28;20505;-79
2021/08/18 01:57:50;;;;;;;10.30;4.82;;;;;;;20.63;59.49;94694.41;5035872;28;20116;-79
2021/08/18 02:00:19;;;;;;;15.27;4.90;;;;;;;20.52;59.79;94690.44;5018080;28;20089;-79
2021/08/18 02:02:51;;;;;;;18.50;5.03;;;;;;;20.44;59.93;94691.91;5051249;22;20084;-79
2021/08/18 02:05:16;;;;;;;;;;;;;;;20.39;60.32;94698.03;5033198;28;20483;-77
2021/08/18 02:07:42;;;;;;;13.88;4.35;;;;;;;20.32;60.03;94700.28;5032154;28;19948;-78
2021/08/18 02:10:10;;;;;;;10.65;4.20;;;;;;;20.29;60.23;94708.03;5018328;28;20045;-80
2021/08/18 02:12:37;;;;;;;12.35;4.70;;;;;;;20.20;60.60;94709.81;5001518;28;20041;-79
2021/08/18 02:15:13;;;;;;;17.95;5.05;;;;;;;20.30;60.48;94707.72;5033159;28;20439;-79
2021/08/18 02:17:51;;;;;;;8.32;4.30;;;;;;;20.35;59.92;94715.56;5036362;28;20030;-79
2021/08/18 02:20:18;;;;;;;14.02;4.82;;;;;;;20.20;60.53;94707.94;5034191;28;20052;-79
2021/08/18 02:22:43;;;;;;;9.77;4.97;;;;;;;20.28;59.97;94709.88;5035462;28;20414;-79
2021/08/18 02:25:09;;;;;;;9.05;4.70;;;;;;;20.31;59.80;94714.56;5036146;28;20040;-79
2021/08/18 02:27:38;;;;;;;10.30;4.93;;;;;;;20.37;59.52;94716.03;5026893;28;20406;-78
2021/08/18 02:30:04;;;;;;;12.50;4.88;;;;;;;20.52;58.93;94722.13;5054364;28;20420;-78
2021/08/18 02:32:29;;;;;;;11.52;5.47;;;;;;;20.65;58.80;94723.94;5054274;28;20422;-77
2021/08/18 02:34:57;;;;;;;11.07;4.95;;;;;;;20.60;58.54;94726.69;5043057;28;20060;-79
2021/08/18 02:37:23;;;;;;;10.30;4.57;;;;;;;20.44;58.39;94728.88;5035279;28;20033;-79
2021/08/18 02:39:48;;;;;;;17.63;5.03;;;;;;;20.26;59.02;94727.88;5017324;28;20525;-79
2021/08/18 02:42:14;;;;;;;15.82;4.85;;;;;;;20.12;59.63;94726.31;5036361;28;20060;-79
2021/08/18 02:44:42;;;;;;;20.98;4.82;;;;;;;20.08;60.20;94728.75;5018320;28;20040;-79
2021/08/18 02:47:08;;;;;;;13.02;4.90;;;;;;;20.01;60.03;94725.72;5035572;28;20489;-79
2021/08/18 02:49:34;;;;;;;12.27;4.88;;;;;;;19.91;60.43;94725.94;5036008;28;20057;-79
2021/08/18 02:51:59;;;;;;;8.80;4.68;;;;;;;19.84;60.40;94728.16;5035831;28;20497;-80
2021/08/18 02:54:25;;;;;;;10.38;4.53;;;;;;;19.74;60.27;94727.28;5013352;28;20045;-77
2021/08/18 02:56:52;;;;;;;11.38;4.75;;;;;;;19.65;59.94;94729.00;5031226;28;20108;-79
2021/08/18 02:59:17;;;;;;;16.42;5.47;;;;;;;19.57;60.20;94726.25;5035884;22;20052;-78
2021/08/18 03:01:43;;;;;;;7.93;4.68;;;;;;;19.45;59.97;94724.03;5031140;28;20037;-78
2021/08/18 03:04:08;;;;;;;11.10;4.00;;;;;;;19.37;60.26;94722.09;5029336;28;20044;-77
2021/08/18 03:06:33;;;;;;;13.02;4.45;;;;;;;19.35;60.34;94732.09;5030865;28;20025;-79
2021/08/18 03:08:59;;;;;;;13.75;4.55;;;;;;;19.29;60.54;94739.31;5032759;28;20648;-79
2021/08/18 03:11:24;;;;;;;15.00;5.07;;;;;;;19.19;60.48;94732.34;5030011;28;20039;-77
2021/08/18 03:13:50;;;;;;;8.77;4.63;;;;;;;19.14;61.14;94734.28;5032538;28;20390;-79
2021/08/18 03:16:15;;;;;;;11.10;5.15;;;;;;;19.12;61.15;94742.50;5031611;28;20056;-79
2021/08/18 03:18:41;;;;;;;7.93;4.60;;;;;;;19.09;60.87;94742.28;5051024;23;21200;-79
2021/08/18 03:21:06;;;;;;;16.50;4.78;;;;;;;19.02;60.72;94747.91;5034564;28;20417;-79
2021/08/18 03:23:31;;;;;;;10.48;4.70;;;;;;;18.96;61.14;94743.78;5017314;28;20401;-79
2021/08/18 03:25:57;;;;;;;15.05;4.72;;;;;;;18.88;61.27;94747.06;5016412;28;20040;-79
2021/08/18 03:28:22;;;;;;;13.98;5.00;;;;;;;18.79;61.27;94748.75;5035618;28;20033;-79
2021/08/18 03:30:48;;;;;;;18.35;4.95;;;;;;;18.80;61.64;94755.59;5039934;22;20041;-79
2021/08/18 03:33:13;;;;;;;10.82;4.28;;;;;;;18.81;61.51;94750.03;5035154;28;20034;-79
2021/08/18 03:35:39;;;;;;;12.88;4.55;;;;;;;18.77;61.50;94750.91;5034726;28;20075;-79
2021/08/18 03:38:04;;;;;;;12.48;4.72;;;;;;;18.76;61.95;94754.59;5018004;28;20026;-79
2021/08/18 03:40:29;;;;;;;8.02;4.43;;;;;;;18.75;61.54;94760.94;5001381;28;20481;-79
2021/08/18 03:42:55;;;;;;;10.18;4.47;;;;;;;18.74;61.19;94757.53;5034372;28;20033;-79
2021/08/18 03:45:20;;;;;;;16.50;4.47;;;;;;;18.71;61.16;94762.56;5034983;28;20457;-79
2021/08/18 03:47:46;;;;;;;8.57;4.22;;;;;;;18.67;61.19;94767.63;5016789;28;20535;-79
2021/08/18 03:50:14;;;;;;;5.28;3.90;;;;;;;18.69;61.18;94762.84;5035324;28;20037;-79
2021/08/18 03:52:40;;;;;;;9.52;4.07;;;;;;;18.68;60.87;94765.75;5037751;28;20033;-79
2021/08/18 03:55:07;;;;;;;7.30;4.78;;;;;;;18.68;60.65;94761.28;5035629;28;20055;-78
2021/08/18 03:57:32;;;;;;;11.93;4.30;;;;;;;18.75;60.61;94768.84;5015724;28;20048;-78
2021/08/18 03:59:59;;;;;;;9.75;4.13;;;;;;;18.74;59.74;94769.91;5035172;28;20489;-78
2021/08/18 04:02:25;;;;;;;10.25;4.53;;;;;;;18.74;59.99;94773.34;5035604;28;20056;-78
2021/08/18 04:04:50;;;;;;;12.05;4.55;;;;;;;18.77;59.84;94778.03;5035773;28;20033;-78
2021/08/18 04:07:16;;;;;;;8.07;4.50;;;;;;;18.82;59.58;94779.81;5035677;28;20018;-78
2021/08/18 04:09:41;;;;;;;4.28;3.35;;;;;;;19.00;59.24;94780.88;5035829;28;20037;-78
2021/08/18 04:12:09;;;;;;;14.37;4.53;;;;;;;19.31;57.88;94781.22;5045196;23;20432;-78
2021/08/18 04:14:35;;;;;;;13.43;4.10;;;;;;;19.86;56.19;94786.72;5058765;22;20828;-78
2021/08/18 04:17:07;;;;;;;6.93;4.05;;;;;;;20.52;53.80;94777.59;5035513;28;20057;-78
2021/08/18 04:19:32;;;;;;;13.88;4.20;;;;;;;21.20;51.77;94785.41;5036077;28;20465;-79
2021/08/18 04:21:58;;;;;;;11.38;3.60;;;;;;;21.93;49.33;94788.72;5033594;28;20041;-78
2021/08/18 04:24:23;;;;;;;12.20;4.00;;;;;;;22.66;47.21;94789.97;5036590;28;20033;-79
2021/08/18 04:26:48;;;;;;;9.80;4.27;;;;;;;23.46;45.16;94787.13;5034884;28;20452;-78
2021/08/18 04:29:14;;;;;;;7.55;3.28;;;;;;;24.24;43.23;94787.75;5035829;28;20056;-78
2021/08/18 04:31:39;;;;;;;8.23;3.70;;;;;;;24.99;41.13;94802.13;5042038;22;20038;-79
2021/08/18 04:34:05;;;;;;;11.48;4.00;;;;;;;25.68;39.91;94792.88;5036135;28;20037;-79
2021/08/18 04:36:30;;;;;;;12.10;3.60;;;;;;;26.44;37.79;94799.63;5018084;28;20041;-78
2021/08/18 04:38:58;;;;;;;12.52;3.38;;;;;;;26.98;36.91;94788.72;5036367;28;20040;-79
2021/08/18 04:41:24;;;;;;;9.15;3.47;;;;;;;27.51;35.69;94788.41;5037202;28;20025;-79
2021/08/18 04:43:49;;;;;;;18.67;3.03;;;;;;;27.87;35.08;94792.06;5036823;28;20049;-79
2021/08/18 04:46:15;;;;;;;11.68;3.15;;;;;;;28.72;32.84;94806.03;5016958;28;20496;-79
2021/08/18 04:48:40;;;;;;;5.63;3.17;;;;;;;28.93;32.60;94801.97;5036919;28;20032;-78
2021/08/18 04:51:06;;;;;;;10.88;2.97;;;;;;;29.56;31.36;94792.97;5036998;28;20041;-79
2021/08/18 04:53:31;;;;;;;7.75;3.05;;;;;;;30.04;30.50;94798.88;5036640;28;20026;-79
2021/08/18 04:55:56;;;;;;;7.13;2.75;;;;;;;30.20;30.13;94804.94;5019352;28;20033;-79
2021/08/18 04:58:22;;;;;;;5.82;2.83;;;;;;;30.45;29.25;94802.69;5037035;28;20083;-79
2021/08/18 05:00:47;;;;;;;8.95;3.10;;;;;;;31.17;28.49;94807.25;5034916;28;20029;-79
2021/08/18 05:03:13;;;;;;;5.85;3.22;;;;;;;32.06;27.43;94801.09;5035485;28;20433;-79
2021/08/18 05:05:39;;;;;;;6.80;2.63;;;;;;;32.55;26.01;94808.09;5035664;28;20029;-79
2021/08/18 05:08:06;;;;;;;12.35;3.03;;;;;;;33.18;25.22;94812.41;5003137;28;20120;-79
2021/08/18 05:10:33;;;;;;;6.93;2.55;;;;;;;33.48;24.44;94822.22;5003752;28;20029;-79
2021/08/18 05:12:58;;;;;;;14.15;2.97;;;;;;;33.68;24.39;94820.75;5025224;23;20111;-79
2021/08/18 05:15:24;;;;;;;12.55;2.47;;;;;;;34.48;22.86;94813.28;5037727;28;20025;-79
2021/08/18 05:17:55;;;;;;;10.98;2.90;;;;;;;34.94;22.17;94817.97;5037124;28;20471;-79
2021/08/18 05:20:20;;;;;;;10.77;2.90;;;;;;;35.04;21.99;94811.78;5037920;28;20026;-79
2021/08/18 05:22:48;;;;;;;4.82;2.58;;;;;;;35.70;21.13;94813.94;5042226;22;20044;-79
2021/08/18 05:25:14;;;;;;;12.25;2.95;;;;;;;36.47;20.76;94824.78;5040467;22;20045;-79
2021/08/18 05:27:40;;;;;;;5.40;2.88;;;;;;;36.56;19.91;94820.44;5037706;28;20041;-79
2021/08/18 05:30:08;;;;;;;7.00;2.70;;;;;;;37.30;19.83;94817.56;5032030;28;20021;-77
2021/08/18 05:32:34;;;;;;;9.10;5.18;;;;;;;37.68;18.94;94821.75;5033452;28;20041;-77
2021/08/18 05:34:59;;;;;;;5.00;2.75;;;;;;;38.19;18.25;94828.13;5032224;28;20481;-77
2021/08/18 05:37:31;;;;;;;19.38;2.72;;;;;;;38.62;17.47;94822.84;5032400;28;20052;-78
2021/08/18 05:39:56;;;;;;;;;;;;;;;39.13;16.99;94811.97;5037270;28;20116;-78
2021/08/18 05:42:24;;;;;;;5.33;2.70;;;;;;;39.47;16.87;94814.44;5037084;28;20006;-78
2021/08/18 05:44:50;;;;;;;9.38;2.22;;;;;;;39.45;16.34;94819.53;5023866;22;20161;-78
2021/08/18 05:47:15;;;;;;;4.03;2.17;;;;;;;38.80;16.83;94816.38;5036337;28;20071;-79
2021/08/18 05:49:41;;;;;;;7.35;2.10;;;;;;;39.07;16.75;94814.38;5036728;28;20033;-80
2021/08/18 05:52:06;;;;;;;7.35;2.00;;;;;;;39.10;16.81;94816.28;5020648;28;20029;-78
2021/08/18 05:54:32;;;;;;;4.80;1.70;;;;;;;39.16;16.40;94814.63;5036687;28;20064;-79
2021/08/18 05:56:57;;;;;;;5.03;2.33;;;;;;;39.66;16.14;94815.66;5020222;28;20053;-79
2021/08/18 05:59:23;;;;;;;7.65;2.67;;;;;;;39.16;16.63;94811.91;5039160;28;20032;-78
2021/08/18 06:01:48;;;;;;;4.32;2.00;;;;;;;39.04;16.42;94804.31;5036759;28;20025;-78
2021/08/18 06:04:14;;;;;;;5.15;2.20;;;;;;;38.64;16.76;94820.53;5020968;28;20476;-79
2021/08/18 06:06:39;;;;;;;4.30;2.22;;;;;;;38.42;17.09;94813.84;5036522;28;20103;-79
2021/08/18 06:09:05;;;;;;;12.75;2.70;;;;;;;37.84;17.39;94810.34;5080836;22;20513;-79
2021/08/18 06:11:30;;;;;;;7.32;2.33;;;;;;;37.69;17.56;94817.09;5034975;28;20393;-79
2021/08/18 06:13:56;;;;;;;3.38;1.88;;;;;;;37.86;17.99;94816.13;5036950;28;20048;-79
2021/08/18 06:16:21;;;;;;;7.55;2.10;;;;;;;37.57;17.51;94812.97;5103793;22;20037;-79
2021/08/18 06:18:47;;;;;;;7.93;2.20;;;;;;;37.01;18.25;94812.38;5042958;22;20220;-79
2021/08/18 06:21:13;;;;;;;4.97;1.95;;;;;;;36.41;18.85;94807.41;5034564;28;20037;-78
2021/08/18 06:23:38;;;;;;;12.48;2.25;;;;;;;35.30;19.98;94801.66;5037297;28;20087;-79
2021/08/18 06:26:03;;;;;;;11.52;2.05;;;;;;;34.44;20.74;94790.94;5036462;28;20030;-79
2021/08/18 06:28:35;;;;;;;6.85;2.40;;;;;;;33.42;21.96;94806.41;5018793;28;20079;-79
2021/08/18 06:31:00;;;;;;;9.50;2.28;;;;;;;33.04;23.06;94806.94;5030104;28;20021;-79
2021/08/18 06:33:26;;;;;;;19.83;2.20;;;;;;;32.76;22.96;94802.88;5036518;28;20039;-79
2021/08/18 06:35:51;;;;;;;12.43;2.92;;;;;;;32.35;23.15;94806.75;5036242;28;20511;-79
2021/08/18 06:38:17;;;;;;;6.32;2.40;;;;;;;31.62;24.12;94799.03;5036097;28;20033;-78
2021/08/18 06:40:42;;;;;;;12.98;3.28;;;;;;;31.22;24.96;94801.56;5036317;28;20017;-78
2021/08/18 06:43:08;;;;;;;10.18;2.90;;;;;;;31.07;25.42;94804.03;5041128;28;20037;-78
2021/08/18 06:45:33;;;;;;;7.88;3.22;;;;;;;30.99;26.25;94798.94;5037818;28;20025;-78
2021/08/18 06:47:59;;;;;;;4.82;2.67;;;;;;;30.41;26.64;94807.19;5041890;28;20037;-78
2021/08/18 06:50:24;;;;;;;9.75;2.85;;;;;;;30.06;27.11;94793.94;5038169;28;20030;-78
2021/08/18 06:52:49;;;;;;;6.18;2.60;;;;;;;30.09;27.68;94801.28;5036946;28;20056;-78
2021/08/18 06:55:15;;;;;;;7.32;3.00;;;;;;;29.81;27.65;94804.97;5018525;28;20413;-78
2021/08/18 06:57:40;;;;;;;4.40;2.70;;;;;;;29.73;27.35;94795.22;5038739;28;20386;-78
2021/08/18 07:00:07;;;;;;;9.27;2.60;;;;;;;29.71;28.00;94786.78;5019434;28;20021;-79
2021/08/18 07:02:32;;;;;;;6.78;3.05;;;;;;;29.45;28.22;94789.28;5016095;28;20033;-79
2021/08/18 07:04:58;;;;;;;8.93;2.92;;;;;;;29.07;28.82;94790.78;5016954;28;20123;-78
2021/08/18 07:07:23;;;;;;;14.00;3.53;;;;;;;29.03;28.89;94789.94;5002825;28;20028;-79
2021/08/18 07:09:48;;;;;;;8.93;2.88;;;;;;;28.92;29.49;94794.28;5024178;22;20257;-78
2021/08/18 07:12:14;;;;;;;8.32;3.10;;;;;;;28.78;29.30;94800.06;5037225;28;20045;-78
2021/08/18 07:14:39;;;;;;;7.75;2.40;;;;;;;28.48;29.68;94798.97;5035397;28;20044;-77
2021/08/18 07:17:05;;;;;;;11.40;2.75;;;;;;;28.21;30.16;94793.31;5044088;28;20036;-77
2021/08/18 07:19:30;;;;;;;12.65;3.38;;;;;;;28.05;30.50;94806.66;5044207;28;20033;-77
2021/08/18 07:21:55;;;;;;;9.45;3.25;;;;;;;28.02;30.90;94795.88;5026147;28;20033;-77
2021/08/18 07:24:21;;;;;;;5.10;2.85;;;;;;;27.91;30.73;94800.94;5040789;28;20029;-78
2021/08/18 07:26:47;;;;;;;14.43;3.40;;;;;;;27.97;31.18;94806.81;5020198;28;20025;-78
2021/08/18 07:29:13;;;;;;;10.50;3.47;;;;;;;28.12;31.25;94803.38;5039937;28;20025;-78
2021/08/18 07:31:38;;;;;;;7.70;3.08;;;;;;;28.27;30.46;94801.88;5042790;28;20125;-78
2021/08/18 07:34:03;;;;;;;6.43;3.10;;;;;;;28.05;30.67;94790.63;5046115;28;20029;-77
2021/08/18 07:36:29;;;;;;;10.23;2.83;;;;;;;27.95;30.69;94796.47;5049435;28;20043;-77
2021/08/18 07:38:54;;;;;;;10.70;3.88;;;;;;;28.02;31.06;94796.66;5049790;28;20040;-77
2021/08/18 07:41:20;;;;;;;7.07;3.20;;;;;;;28.10;31.41;94793.03;5047878;28;20025;-77
2021/08/18 07:43:45;;;;;;;3.65;3.03;;;;;;;28.16;31.05;94793.59;5047030;28;20041;-78
2021/08/18 07:46:11;;;;;;;7.57;3.33;;;;;;;28.24;31.20;94795.31;5045299;28;20026;-77
2021/08/18 07:48:36;;;;;;;15.15;3.63;;;;;;;28.13;30.48;94790.81;5046069;28;20036;-79
2021/08/18 07:51:02;;;;;;;4.50;3.38;;;;;;;27.75;31.66;94786.78;5038627;28;20037;-78
2021/08/18 07:53:28;;;;;;;16.30;3.42;;;;;;;27.84;31.69;94779.41;5032832;23;20033;-78
2021/08/18 07:55:53;;;;;;;3.88;2.83;;;;;;;27.76;31.66;94788.31;5057180;28;20037;-78
2021/08/18 07:58:19;;;;;;;13.15;4.28;;;;;;;27.60;32.01;94787.47;5059419;28;20024;-78
2021/08/18 08:00:44;;;;;;;17.42;4.10;;;;;;;27.80;32.68;94783.84;5058127;28;20556;-78
2021/08/18 08:03:10;;;;;;;13.68;4.10;;;;;;;27.93;31.82;94782.66;5058493;28;20032;-78
2021/08/18 08:05:36;;;;;;;8.10;4.00;;;;;;;28.01;31.78;94784.44;5058595;28;20033;-78
2021/08/18 08:08:01;;;;;;;7.95;4.72;;;;;;;28.05;31.81;94793.31;5063070;22;20524;-79
2021/08/18 08:10:26;;;;;;;6.32;4.30;;;;;;;27.94;32.15;94789.56;5038655;28;20037;-79
2021/08/18 08:12:52;;;;;;;10.43;4.90;;;;;;;27.86;31.54;94779.81;5041270;28;20037;-80
2021/08/18 08:15:17;;;;;;;10.35;4.38;;;;;;;27.59;32.76;94769.91;5039677;28;20033;-79
2021/08/18 08:17:43;;;;;;;11.40;4.95;;;;;;;27.56;33.01;94771.34;5038928;28;20032;-78
2021/08/18 08:20:09;;;;;;;12.38;5.80;;;;;;;27.47;32.71;94771.50;5039480;28;20037;-80
2021/08/18 08:22:35;;;;;;;13.13;5.53;;;;;;;27.44;33.11;94782.84;5039991;28;20103;-80
2021/08/18 08:25:00;;;;;;;12.75;5.70;;;;;;;27.41;33.19;94775.53;5039826;28;20493;-78
2021/08/18 08:27:26;;;;;;;11.45;5.78;;;;;;;27.29;33.21;94775.56;5039425;28;20037;-80
2021/08/18 08:29:54;;;;;;;13.90;5.68;;;;;;;27.43;33.79;94770.63;5005046;28;20032;-80
2021/08/18 08:32:20;;;;;;;8.60;5.35;;;;;;;27.55;33.37;94777.03;5037323;28;20040;-77
2021/08/18 08:34:48;;;;;;;16.35;6.07;;;;;;;27.60;33.34;94768.78;5039881;28;20163;-80
2021/08/18 08:37:14;;;;;;;10.65;5.47;;;;;;;27.61;33.36;94770.31;5037302;28;20025;-80
2021/08/18 08:39:39;;;;;;;12.52;5.55;;;;;;;27.64;33.39;94770.44;5037474;28;20030;-79
2021/08/18 08:42:05;;;;;;;8.93;5.03;;;;;;;27.57;33.35;94769.47;5037618;28;20032;-80
2021/08/18 08:44:32;;;;;;;16.52;6.00;;;;;;;27.77;33.37;94773.84;5037972;28;20086;-80
2021/08/18 08:46:57;;;;;;;16.48;6.10;;;;;;;27.85;32.70;94759.56;5039325;28;20134;-80
2021/08/18 08:49:23;;;;;;;10.23;6.07;;;;;;;27.86;32.90;94766.47;5035121;28;20029;-79
2021/08/18 08:51:50;;;;;;;13.45;6.03;;;;;;;27.82;32.80;94760.22;5038643;28;20022;-79
2021/08/18 08:54:15;;;;;;;15.80;5.32;;;;;;;27.68;32.97;94754.53;5037703;28;20034;-79
2021/08/18 08:56:41;;;;;;;13.88;5.55;;;;;;;27.71;32.99;94753.84;5037663;28;20044;-79
2021/08/18 08:59:06;;;;;;;14.52;5.93;;;;;;;27.85;32.64;94754.22;5020597;28;20750;-79
2021/08/18 09:02:00;;;;;;;11.60;5.85;;;;;;;27.97;32.41;94751.47;5038021;28;20037;-79
2021/08/18 09:04:35;;;;;;;11.23;5.55;;;;;;;27.95;33.38;94753.69;5042996;28;20033;-79
2021/08/18 09:07:10;;;;;;;11.82;6.72;;;;;;;28.04;33.10;94751.66;5021401;28;20037;-79
2021/08/18 09:09:36;;;;;;;20.80;7.80;;;;;;;28.24;33.04;94757.09;5020156;28;20030;-80
2021/08/18 09:12:13;;;;;;;18.42;6.28;;;;;;;28.23;32.46;94750.19;5019791;28;20485;-79
2021/08/18 09:14:38;;;;;;;12.45;6.95;;;;;;;28.23;32.77;94742.94;5001640;28;20128;-79
2021/08/18 09:17:29;;;;;;;10.90;6.38;;;;;;;28.21;33.05;94739.06;5037445;28;20029;-79
2021/08/18 09:19:58;;;;;;;16.33;7.18;;;;;;;28.34;32.25;94733.31;5038280;28;20033;-80
2021/08/18 09:22:24;;;;;;;20.27;6.60;;;;;;;28.26;32.26;94736.16;5002805;28;20127;-80
2021/08/18 09:24:49;;;;;;;17.02;7.63;;;;;;;28.34;32.89;94729.88;5031167;28;20029;-80
2021/08/18 09:27:16;;;;;;;14.55;7.93;;;;;;;28.44;32.88;94734.66;5038361;28;20041;-80
2021/08/18 09:29:44;;;;;;;13.07;8.05;;;;;;;28.46;32.77;94729.75;5004698;28;20042;-79
2021/08/18 09:32:33;;;;;;;16.33;7.72;;;;;;;28.49;32.59;94718.38;5018721;28;20041;-80
2021/08/18 09:35:08;;;;;;;15.80;7.20;;;;;;;28.42;33.08;94714.75;5020621;28;20034;-80
2021/08/18 09:37:34;;;;;;;19.38;6.78;;;;;;;28.36;32.75;94720.38;5037412;28;20078;-80
2021/08/18 09:40:00;;;;;;;10.73;6.70;;;;;;;28.22;33.23;94719.22;5019626;28;20029;-80
2021/08/18 09:42:32;;;;;;;18.80;7.25;;;;;;;28.14;33.12;94725.50;5000960;28;20033;-79
2021/08/18 09:45:08;;;;;;;15.02;7.18;;;;;;;28.08;33.07;94715.09;5036913;28;20053;-80
2021/08/18 09:47:34;;;;;;;16.40;6.65;;;;;;;28.01;33.44;94717.59;5039965;23;20037;-80
2021/08/18 09:49:59;;;;;;;11.73;7.07;;;;;;;27.96;33.54;94717.06;5056342;28;20492;-80
2021/08/18 09:52:25;;;;;;;12.52;7.20;;;;;;;27.86;33.49;94715.69;5055867;28;20048;-80
2021/08/18 09:54:50;;;;;;;18.52;7.07;;;;;;;27.94;33.86;94706.72;5056496;28;20463;-79
2021/08/18 09:57:16;;;;;;;14.02;7.00;;;;;;;28.05;33.61;94709.66;5039352;28;20059;-79
2021/08/18 09:59:43;;;;;;;10.27;7.10;;;;;;;28.17;33.80;94706.13;5058335;28;20040;-81
2021/08/18 10:02:09;;;;;;;12.70;6.88;;;;;;;28.21;33.66;94701.63;5056152;28;20032;-79
2021/08/18 10:04:35;;;;;;;13.43;7.00;;;;;;;28.21;33.66;94701.63;5056491;22;20045;-80
2021/08/18 10:07:00;;;;;;;13.18;6.85;;;;;;;28.29;33.06;94692.66;5036768;28;20485;-79
2021/08/18 10:09:25;;;;;;;11.18;6.45;;;;;;;28.19;33.05;94693.97;5037072;28;20036;-79
2021/08/18 10:11:51;;;;;;;12.80;7.45;;;;;;;28.26;33.75;94704.84;5003414;28;20505;-80
2021/08/18 10:14:16;;;;;;;16.35;7.63;;;;;;;28.26;32.87;94693.38;5002957;28;20475;-80
2021/08/18 10:16:42;;;;;;;14.50;7.25;;;;;;;28.11;33.43;94684.97;5032706;28;20409;-79
2021/08/18 10:19:07;;;;;;;12.65;7.03;;;;;;;28.20;33.49;94689.38;5016546;28;20452;-80
2021/08/18 10:21:33;;;;;;;12.90;7.13;;;;;;;28.39;33.34;94684.13;5037103;28;20030;-80
2021/08/18 10:24:03;;;;;;;13.60;7.32;;;;;;;28.26;32.82;94682.69;5018324;28;20039;-80
2021/08/18 10:26:34;;;;;;;11.60;7.15;;;;;;;28.27;33.15;94671.63;5037094;28;20053;-80
2021/08/18 10:29:06;;;;;;;14.50;7.57;;;;;;;28.24;33.71;94671.53;5037109;28;20048;-79
2021/08/18 10:31:45;;;;;;;13.18;7.63;;;;;;;28.28;33.35;94675.06;5018492;28;20041;-80
2021/08/18 10:34:25;;;;;;;10.48;7.07;;;;;;;28.14;33.45;94675.50;5036300;28;20481;-79
2021/08/18 10:36:56;;;;;;;7.97;7.07;;;;;;;28.00;33.58;94669.84;5036276;28;20476;-79
2021/08/18 10:39:22;;;;;;;12.48;7.32;;;;;;;27.99;33.44;94669.06;5017391;28;20034;-80
2021/08/18 10:42:15;;;;;;;16.63;7.25;;;;;;;28.10;34.03;94670.06;5036657;28;20113;-80
2021/08/18 10:44:48;;;;;;;11.82;7.55;;;;;;;28.20;33.15;94662.66;5036063;28;20394;-79
2021/08/18 10:47:21;;;;;;;15.07;7.53;;;;;;;28.26;33.41;94666.63;5036327;28;20047;-79
2021/08/18 10:49:57;;;;;;;13.07;7.55;;;;;;;28.19;33.44;94661.09;5036693;28;20052;-79
2021/08/18 10:52:28;;;;;;;14.88;8.85;;;;;;;27.94;33.60;94661.28;5036184;28;20037;-79
2021/08/18 10:55:15;;;;;;;13.35;8.02;;;;;;;27.81;33.76;94662.47;5045144;28;20025;-79
2021/08/18 10:57:50;;;;;;;14.52;7.93;;;;;;;27.78;33.81;94655.16;5050498;22;20042;-78
2021/08/18 11:00:34;;;;;;;14.63;8.00;;;;;;;27.65;34.57;94656.34;5037735;28;20034;-79
2021/08/18 11:03:12;;;;;;;21.30;10.23;;;;;;;27.68;34.82;94648.44;5015876;28;20026;-80
2021/08/18 11:05:37;;;;;;;13.75;8.23;;;;;;;27.75;34.52;94647.84;5016071;28;20042;-79
2021/08/18 11:10:43;;;;;;;15.27;8.38;;;;;;;27.59;34.51;94639.78;5451638;22;20049;-79
2021/08/18 11:13:14;;;;;;;15.50;7.97;;;;;;;27.51;34.83;94638.84;5036021;28;20477;-79
2021/08/18 11:15:42;;;;;;;17.88;9.73;;;;;;;27.49;35.08;94637.59;5035263;28;20033;-79
2021/08/18 11:18:08;;;;;;;12.52;7.95;;;;;;;27.48;34.37;94631.47;5033287;28;20504;-79
2021/08/18 11:20:34;;;;;;;14.30;8.38;;;;;;;27.53;34.18;94627.81;5032644;28;20501;-79
2021/08/18 11:23:06;;;;;;;15.13;8.05;;;;;;;27.53;33.87;94638.50;5035175;28;20034;-79
2021/08/18 11:25:41;;;;;;;11.30;7.72;;;;;;;27.45;34.08;94636.75;5017106;28;20038;-79
2021/08/18 11:28:07;;;;;;;15.93;8.02;;;;;;;27.37;34.14;94622.44;5018544;28;20030;-79
2021/08/18 11:30:35;;;;;;;13.05;7.78;;;;;;;27.41;34.55;94635.88;5035787;28;20034;-79
2021/08/18 11:33:20;;;;;;;10.52;8.38;;;;;;;27.45;34.65;94628.72;5036074;28;20481;-79
2021/08/18 11:35:46;;;;;;;11.75;8.18;;;;;;;27.52;34.54;94623.59;4985278;28;20124;-79